Time;durP1;ratioP1;P1;durP2;ratioP2;P2;SDS_P1;SDS_P2;PMS_P1;PMS_P2;Temp;Humidity;BMP_temperature;BMP_pressure;BME280_temperature;BME280_humidity;BME280_pressure;Samples;Min_cycle;Max_cycle;Signal;HPM_P1;HPM_P2
2022/11/24 00:01:27;;;;;;;5.93;1.93;;;;;;;5.33;100.00;152731.78;4974678;28;20793;-87
2022/11/24 00:04:13;;;;;;;7.00;2.53;;;;;;;5.31;100.00;152726.63;4978373;28;20461;-87
2022/11/24 00:06:58;;;;;;;6.30;2.70;;;;;;;5.33;100.00;152731.78;4977356;28;20407;-87
2022/11/24 00:09:43;;;;;;;4.97;2.60;;;;;;;5.36;100.00;152738.22;4978325;28;20466;-87
2022/11/24 00:12:28;;;;;;;6.00;2.50;;;;;;;5.41;100.00;152752.41;4973927;28;20489;-87
2022/11/24 00:15:14;;;;;;;4.73;2.23;;;;;;;5.47;100.00;152767.88;4957908;29;20485;-87
2022/11/24 00:18:00;;;;;;;3.93;2.40;;;;;;;5.48;100.00;152769.19;4968711;28;21037;-87
2022/11/24 00:20:52;;;;;;;2.70;1.83;;;;;;;5.51;100.00;152778.19;4973249;28;20446;-88
2022/11/24 00:23:37;;;;;;;4.77;2.50;;;;;;;5.57;100.00;152792.38;4977666;28;21236;-87
2022/11/24 00:26:25;;;;;;;3.90;2.10;;;;;;;5.57;100.00;152792.38;4977159;28;21176;-87
2022/11/24 00:29:11;;;;;;;8.10;3.00;;;;;;;5.57;100.00;152791.06;4977823;28;20565;-88
2022/11/24 00:31:57;;;;;;;6.37;2.60;;;;;;;5.57;100.00;152792.38;4977634;28;20894;-87
2022/11/24 00:34:44;;;;;;;3.40;2.13;;;;;;;5.57;100.00;152792.38;4963271;28;20422;-87
2022/11/24 00:37:29;;;;;;;4.03;2.47;;;;;;;5.55;100.00;152787.22;4998718;28;20421;-87
2022/11/24 00:40:14;;;;;;;3.40;2.20;;;;;;;5.57;100.00;152792.38;4970604;28;20450;-88
2022/11/24 00:43:00;;;;;;;3.27;2.17;;;;;;;5.61;100.00;152801.41;4977240;28;20429;-87
2022/11/24 00:45:45;;;;;;;4.20;2.50;;;;;;;5.60;100.00;152800.09;4981393;28;20445;-87
2022/11/24 00:48:31;;;;;;;3.23;2.30;;;;;;;5.64;100.00;152809.16;4954409;28;20812;-87
2022/11/24 00:51:19;;;;;;;7.53;2.43;;;;;;;5.62;100.00;152805.25;4957342;29;20414;-88
2022/11/24 00:54:05;;;;;;;4.67;3.03;;;;;;;5.61;100.00;152802.72;4963876;28;20450;-87
2022/11/24 00:56:50;;;;;;;5.20;2.60;;;;;;;5.60;100.00;152798.81;4975240;28;20469;-87
2022/11/24 00:59:36;;;;;;;6.20;2.53;;;;;;;5.56;100.00;152789.75;4959035;28;20495;-87
2022/11/24 01:02:21;;;;;;;6.03;2.17;;;;;;;5.55;100.00;152787.22;4985032;28;20890;-87
2022/11/24 01:05:07;;;;;;;4.77;2.50;;;;;;;5.61;100.00;152801.41;4993859;28;20409;-87
2022/11/24 01:07:54;;;;;;;4.80;2.20;;;;;;;5.58;100.00;152793.66;4968126;28;20802;-87
2022/11/24 01:10:39;;;;;;;9.00;2.10;;;;;;;5.57;100.00;152792.38;4976300;28;20477;-87
2022/11/24 01:13:24;;;;;;;5.90;2.40;;;;;;;5.58;100.00;152794.97;4976177;28;20421;-87
2022/11/24 01:16:14;;;;;;;2.70;1.73;;;;;;;5.54;100.00;152784.63;4974793;28;20964;-87
2022/11/24 01:19:00;;;;;;;5.13;1.80;;;;;;;5.49;100.00;152773.03;4976991;28;20479;-87
2022/11/24 01:21:46;;;;;;;4.53;2.20;;;;;;;5.50;100.00;152774.31;4966043;28;21006;-87
2022/11/24 01:24:33;;;;;;;5.87;2.00;;;;;;;5.51;100.00;152776.88;4957730;28;20482;-87
2022/11/24 01:27:18;;;;;;;5.70;2.03;;;;;;;5.47;100.00;152766.59;4962558;28;20488;-87
2022/11/24 01:30:04;;;;;;;5.90;1.73;;;;;;;5.45;100.00;152761.44;4957021;28;20451;-87
2022/11/24 01:32:50;;;;;;;4.23;2.20;;;;;;;5.43;100.00;152756.25;4947723;28;20462;-87
2022/11/24 01:35:36;;;;;;;4.00;2.23;;;;;;;5.42;100.00;152753.69;4956724;28;20442;-87
2022/11/24 01:38:21;;;;;;;4.50;2.00;;;;;;;5.37;100.00;152742.09;4956743;28;20446;-87
2022/11/24 01:41:13;;;;;;;3.13;1.80;;;;;;;5.34;100.00;152733.06;4964911;28;20918;-87
2022/11/24 01:43:58;;;;;;;4.17;2.13;;;;;;;5.34;100.00;152733.06;4971195;28;20813;-87
2022/11/24 01:46:46;;;;;;;4.73;1.90;;;;;;;5.34;100.00;152734.38;4975331;28;20425;-87
2022/11/24 01:49:38;;;;;;;6.60;2.20;;;;;;;5.37;100.00;152740.81;4975584;28;20454;-87
2022/11/24 01:52:26;;;;;;;3.47;2.00;;;;;;;5.37;100.00;152742.09;4973589;28;20458;-88
2022/11/24 01:55:14;;;;;;;4.10;1.77;;;;;;;5.39;100.00;152745.94;4956522;29;20747;-86
2022/11/24 01:58:03;;;;;;;5.87;1.90;;;;;;;5.39;100.00;152745.94;4956237;29;20925;-87
2022/11/24 02:00:48;;;;;;;3.00;1.80;;;;;;;5.38;100.00;152743.34;4960880;28;20458;-87
2022/11/24 02:03:37;;;;;;;3.33;1.70;;;;;;;5.35;100.00;152736.91;4970392;28;20453;-87
2022/11/24 02:06:25;;;;;;;6.53;2.80;;;;;;;5.35;100.00;152735.63;4955870;29;20403;-87
2022/11/24 02:09:16;;;;;;;3.80;1.80;;;;;;;5.38;100.00;152743.34;4955893;28;20482;-86
2022/11/24 02:12:02;;;;;;;3.70;2.47;;;;;;;5.37;100.00;152742.09;4980802;28;20560;-87
2022/11/24 02:14:48;;;;;;;3.37;1.73;;;;;;;5.38;100.00;152743.34;4994818;28;20508;-87
2022/11/24 02:17:33;;;;;;;3.70;1.50;;;;;;;5.40;100.00;152748.56;4990745;28;20886;-87
2022/11/24 02:20:19;;;;;;;5.73;2.47;;;;;;;5.39;100.00;152747.25;4993601;28;20448;-87
2022/11/24 02:23:13;;;;;;;4.30;1.50;;;;;;;5.40;100.00;152748.56;4986708;28;20594;-87
2022/11/24 02:26:04;;;;;;;2.83;1.90;;;;;;;5.42;100.00;152755.00;4985815;28;20405;-86
2022/11/24 02:28:51;;;;;;;2.30;1.67;;;;;;;5.37;100.00;152742.09;4965376;28;20882;-87
2022/11/24 02:31:36;;;;;;;5.10;2.00;;;;;;;5.39;100.00;152745.94;4975440;28;20523;-86
2022/11/24 02:34:22;;;;;;;3.67;2.03;;;;;;;5.38;100.00;152743.34;4995979;28;20521;-86
2022/11/24 02:37:07;;;;;;;3.67;2.13;;;;;;;5.37;100.00;152740.81;5002634;28;20499;-86
2022/11/24 02:39:53;;;;;;;2.03;1.70;;;;;;;5.35;100.00;152735.63;4985832;28;21437;-88
2022/11/24 02:42:42;;;;;;;4.73;1.93;;;;;;;5.36;100.00;152738.22;5012771;28;20460;-87
2022/11/24 02:45:30;;;;;;;3.57;1.83;;;;;;;5.36;100.00;152738.22;5000235;28;20939;-87
2022/11/24 02:48:15;;;;;;;4.30;1.80;;;;;;;5.38;100.00;152743.34;4976960;28;21193;-87
2022/11/24 02:51:00;;;;;;;4.60;1.33;;;;;;;5.38;100.00;152743.34;4994550;28;20490;-87
2022/11/24 02:53:45;;;;;;;2.20;1.33;;;;;;;5.38;100.00;152743.34;4975404;28;20480;-87
2022/11/24 02:56:31;;;;;;;3.30;1.87;;;;;;;5.34;100.00;152733.06;4988496;28;20459;-88
2022/11/24 02:59:16;;;;;;;3.40;2.17;;;;;;;5.32;100.00;152727.91;4993592;28;20804;-87
2022/11/24 03:02:03;;;;;;;3.30;1.50;;;;;;;5.27;100.00;152716.28;4979700;28;20449;-87
2022/11/24 03:04:48;;;;;;;3.53;1.77;;;;;;;5.26;100.00;152712.44;4979744;28;20871;-87
2022/11/24 03:07:34;;;;;;;3.60;1.87;;;;;;;5.22;100.00;152703.41;4984173;28;20585;-88
2022/11/24 03:10:19;;;;;;;1.93;1.00;;;;;;;5.19;100.00;152695.66;4967178;28;20604;-88
2022/11/24 03:13:04;;;;;;;3.60;1.80;;;;;;;5.19;100.00;152694.41;4960743;28;20614;-87
2022/11/24 03:15:50;;;;;;;2.97;1.63;;;;;;;5.12;100.00;152676.31;4974405;28;20437;-87
2022/11/24 03:18:36;;;;;;;1.80;1.17;;;;;;;5.09;100.00;152669.88;4972784;28;20466;-87
2022/11/24 03:21:22;;;;;;;2.93;1.50;;;;;;;5.08;100.00;152666.03;4974209;28;20545;-87
2022/11/24 03:24:07;;;;;;;1.53;1.30;;;;;;;5.04;100.00;152655.69;4954079;28;20446;-88
2022/11/24 03:26:52;;;;;;;3.03;1.30;;;;;;;5.03;100.00;152653.16;4953586;29;20435;-87
2022/11/24 03:29:37;;;;;;;4.87;2.00;;;;;;;4.98;100.00;152641.53;4991588;28;20584;-88
2022/11/24 03:32:22;;;;;;;2.73;1.47;;;;;;;5.02;100.00;152650.56;4968123;28;20481;-87
2022/11/24 03:35:09;;;;;;;2.30;1.30;;;;;;;5.00;100.00;152645.41;4977978;28;20405;-87
2022/11/24 03:37:54;;;;;;;3.63;1.27;;;;;;;4.97;100.00;152637.69;4966277;28;20581;-87
2022/11/24 03:40:40;;;;;;;3.33;1.70;;;;;;;4.96;100.00;152636.38;4970783;28;20796;-87
2022/11/24 03:43:25;;;;;;;3.00;1.67;;;;;;;4.93;100.00;152629.94;4958654;29;20446;-87
2022/11/24 03:46:10;;;;;;;3.10;1.80;;;;;;;4.91;100.00;152623.50;4961322;28;20585;-87
2022/11/24 03:48:56;;;;;;;3.80;1.77;;;;;;;4.95;100.00;152633.78;4962467;28;20463;-87
2022/11/24 03:51:43;;;;;;;3.53;1.60;;;;;;;4.98;100.00;152641.53;4977375;28;20453;-87
2022/11/24 03:54:28;;;;;;;3.10;1.73;;;;;;;4.94;100.00;152631.22;4977831;28;20900;-88
2022/11/24 03:57:14;;;;;;;4.00;1.53;;;;;;;4.90;100.00;152622.19;4968838;28;20827;-87
2022/11/24 03:59:59;;;;;;;4.23;1.70;;;;;;;4.87;100.00;152614.47;4968610;28;20518;-87
2022/11/24 04:02:44;;;;;;;5.53;2.03;;;;;;;4.88;100.00;152617.06;4958042;29;20439;-87
2022/11/24 04:05:30;;;;;;;2.33;1.70;;;;;;;4.89;100.00;152619.66;4958190;29;20411;-88
2022/11/24 04:08:17;;;;;;;2.30;1.63;;;;;;;4.91;100.00;152624.78;4966285;28;20453;-87
2022/11/24 04:11:02;;;;;;;2.20;1.43;;;;;;;4.91;100.00;152624.78;4959530;28;20501;-87
2022/11/24 04:13:46;;;;;;;4.00;1.90;;;;;;;4.92;100.00;152627.34;4957784;28;20590;-87
2022/11/24 04:16:32;;;;;;;2.60;1.57;;;;;;;4.91;100.00;152624.78;4958013;28;20586;-87
2022/11/24 04:19:17;;;;;;;3.50;1.57;;;;;;;4.92;100.00;152626.09;4977046;28;20889;-88
2022/11/24 04:22:02;;;;;;;2.97;1.57;;;;;;;4.90;100.00;152620.91;4969784;28;20524;-87
2022/11/24 04:24:49;;;;;;;10.90;2.00;;;;;;;4.91;100.00;152624.78;4948949;28;20900;-87
2022/11/24 04:27:35;;;;;;;3.77;1.93;;;;;;;4.87;100.00;152613.22;4972582;28;20449;-87
2022/11/24 04:30:21;;;;;;;5.90;1.37;;;;;;;4.90;100.00;152622.19;4977014;28;20497;-87
2022/11/24 04:33:06;;;;;;;3.37;1.57;;;;;;;4.88;100.00;152615.75;4976986;28;20477;-88
2022/11/24 04:35:53;;;;;;;3.70;1.60;;;;;;;4.89;100.00;152618.34;4966904;28;20454;-87
2022/11/24 04:38:38;;;;;;;6.00;1.90;;;;;;;4.92;100.00;152627.34;4980028;28;20798;-88
2022/11/24 04:41:25;;;;;;;8.77;2.33;;;;;;;4.90;100.00;152622.19;4977076;28;20426;-87
2022/11/24 04:44:10;;;;;;;2.80;1.63;;;;;;;4.96;100.00;152636.38;4968819;28;20437;-87
2022/11/24 04:46:55;;;;;;;4.80;2.23;;;;;;;4.97;100.00;152637.69;4973494;28;20933;-87
2022/11/24 04:49:40;;;;;;;2.53;1.40;;;;;;;4.98;100.00;152640.28;4961401;28;20839;-87
2022/11/24 04:52:26;;;;;;;3.10;1.60;;;;;;;5.03;100.00;152653.16;4958757;28;20616;-88
2022/11/24 04:55:12;;;;;;;3.80;1.83;;;;;;;4.99;100.00;152642.81;4962891;28;20469;-87
2022/11/24 04:57:58;;;;;;;3.77;2.40;;;;;;;4.93;100.00;152628.63;4960197;28;20944;-87
2022/11/24 05:00:43;;;;;;;2.07;1.40;;;;;;;4.95;100.00;152632.53;4970408;28;20788;-87
2022/11/24 05:03:29;;;;;;;3.40;1.30;;;;;;;4.93;100.00;152629.94;4976908;28;20473;-87
2022/11/24 05:06:14;;;;;;;2.27;1.60;;;;;;;4.95;100.00;152633.78;4965366;28;20437;-87
2022/11/24 05:09:00;;;;;;;2.63;1.97;;;;;;;4.99;100.00;152642.81;4957528;29;20438;-88
2022/11/24 05:11:45;;;;;;;4.73;1.80;;;;;;;5.06;100.00;152660.84;4960578;28;20445;-87
2022/11/24 05:14:32;;;;;;;4.70;2.13;;;;;;;5.04;100.00;152657.00;4975383;28;20438;-87
2022/11/24 05:17:17;;;;;;;3.23;1.60;;;;;;;5.04;100.00;152655.69;4976024;28;20437;-87
2022/11/24 05:20:04;;;;;;;2.57;1.77;;;;;;;5.03;100.00;152653.16;4970177;28;20445;-87
2022/11/24 05:22:49;;;;;;;4.57;1.73;;;;;;;5.02;100.00;152650.56;4972662;28;20433;-87
2022/11/24 05:25:35;;;;;;;4.27;1.83;;;;;;;4.99;100.00;152642.81;4970853;28;20452;-88
2022/11/24 05:28:20;;;;;;;2.40;1.80;;;;;;;4.93;100.00;152629.94;4975821;28;20445;-88
2022/11/24 05:31:07;;;;;;;3.13;1.43;;;;;;;4.96;100.00;152636.38;4969659;28;20545;-87
2022/11/24 05:33:53;;;;;;;3.10;1.90;;;;;;;4.93;100.00;152629.94;4959372;28;20469;-87
2022/11/24 05:36:53;;;;;;;5.20;2.10;;;;;;;4.96;100.00;152635.06;4975843;28;20478;-87
2022/11/24 05:39:38;;;;;;;3.10;1.60;;;;;;;4.95;100.00;152632.53;4975133;28;20449;-86
2022/11/24 05:42:41;;;;;;;2.43;1.33;;;;;;;4.91;100.00;152623.50;4968718;28;20442;-87
2022/11/24 05:45:27;;;;;;;4.03;1.60;;;;;;;4.87;100.00;152614.47;4975291;28;20948;-87
2022/11/24 05:48:14;;;;;;;4.13;1.87;;;;;;;4.86;100.00;152611.91;4978398;28;20461;-87
2022/11/24 05:50:59;;;;;;;5.20;1.70;;;;;;;4.87;100.00;152614.47;4983292;28;20464;-87
2022/11/24 05:53:45;;;;;;;3.77;1.60;;;;;;;4.86;100.00;152610.63;4971151;28;20955;-87
2022/11/24 05:56:30;;;;;;;4.40;1.80;;;;;;;4.96;100.00;152635.06;4975991;28;20971;-87
2022/11/24 05:59:15;;;;;;;2.77;2.00;;;;;;;4.95;100.00;152633.78;4975677;28;20438;-88
2022/11/24 06:02:00;;;;;;;8.50;1.93;;;;;;;5.02;100.00;152650.56;4967252;28;20453;-87
2022/11/24 06:04:47;;;;;;;4.77;1.67;;;;;;;5.02;100.00;152650.56;4975092;28;20494;-88
2022/11/24 06:07:32;;;;;;;4.87;2.30;;;;;;;5.02;100.00;152651.84;4980501;28;20804;-88
2022/11/24 06:10:18;;;;;;;5.80;1.67;;;;;;;5.07;100.00;152664.75;4974697;28;20466;-88
2022/11/24 06:13:06;;;;;;;4.63;2.23;;;;;;;5.08;100.00;152666.03;4974852;28;20837;-88
2022/11/24 06:15:51;;;;;;;3.87;1.73;;;;;;;5.09;100.00;152669.88;4963079;28;20529;-88
2022/11/24 06:18:37;;;;;;;4.53;1.60;;;;;;;5.11;100.00;152673.78;4953649;29;20429;-88
2022/11/24 06:21:23;;;;;;;3.93;2.13;;;;;;;5.10;100.00;152671.19;4967877;28;20800;-88
2022/11/24 06:24:08;;;;;;;7.90;2.30;;;;;;;5.21;100.00;152699.56;4973918;28;20469;-88
2022/11/24 06:26:54;;;;;;;5.03;2.20;;;;;;;5.16;100.00;152686.66;4954546;28;20450;-86
2022/11/24 06:29:39;;;;;;;5.33;2.17;;;;;;;5.19;100.00;152695.66;4973207;28;21091;-87
2022/11/24 06:32:24;;;;;;;3.67;1.80;;;;;;;5.21;100.00;152700.84;4975272;28;20438;-87
2022/11/24 06:35:10;;;;;;;5.57;2.33;;;;;;;5.28;100.00;152717.59;4974375;28;20469;-86
2022/11/24 06:37:56;;;;;;;8.40;2.10;;;;;;;5.26;100.00;152712.44;4955407;28;20506;-87
2022/11/24 06:40:42;;;;;;;2.23;1.77;;;;;;;5.27;100.00;152716.28;4983801;28;20457;-87
2022/11/24 06:43:27;;;;;;;8.07;2.37;;;;;;;5.29;100.00;152721.47;4989136;28;20468;-87
2022/11/24 06:46:13;;;;;;;5.90;2.70;;;;;;;5.31;100.00;152726.63;4973504;28;20455;-88
2022/11/24 06:48:59;;;;;;;6.43;1.80;;;;;;;5.35;100.00;152736.91;4970284;28;20454;-87
2022/11/24 06:51:44;;;;;;;4.00;1.63;;;;;;;5.38;100.00;152744.66;4957172;28;20556;-87
2022/11/24 06:54:31;;;;;;;4.07;2.00;;;;;;;5.39;100.00;152745.94;4974077;28;20920;-87
2022/11/24 06:57:16;;;;;;;6.43;1.83;;;;;;;5.36;100.00;152739.50;4967400;28;20982;-87
2022/11/24 07:00:02;;;;;;;4.93;2.47;;;;;;;5.37;100.00;152740.81;4971588;28;20454;-87
2022/11/24 07:02:47;;;;;;;3.83;1.87;;;;;;;5.39;100.00;152745.94;4971623;28;20460;-87
2022/11/24 07:05:32;;;;;;;4.57;2.10;;;;;;;5.40;100.00;152748.56;4968308;28;20470;-87
2022/11/24 07:08:18;;;;;;;4.13;1.87;;;;;;;5.42;100.00;152753.69;4985201;28;20442;-87
2022/11/24 07:11:09;;;;;;;4.97;2.23;;;;;;;5.46;100.00;152764.00;4978725;28;20461;-86
2022/11/24 07:13:55;;;;;;;5.87;2.23;;;;;;;5.45;100.00;152761.44;4996211;28;20468;-87
2022/11/24 07:16:42;;;;;;;5.33;2.77;;;;;;;5.46;100.00;152764.00;4976378;28;20912;-87
2022/11/24 07:19:28;;;;;;;8.00;3.60;;;;;;;5.48;100.00;152769.19;4994799;28;20525;-88
2022/11/24 07:22:13;;;;;;;4.87;2.00;;;;;;;5.49;100.00;152771.72;4991301;28;20448;-88
2022/11/24 07:24:59;;;;;;;4.77;2.20;;;;;;;5.50;100.00;152774.31;4998163;28;20444;-88
2022/11/24 07:27:46;;;;;;;2.50;1.90;;;;;;;5.55;100.00;152787.22;5010532;28;20451;-87
2022/11/24 07:30:32;;;;;;;5.43;2.10;;;;;;;5.57;100.00;152792.38;4987953;28;20464;-88
2022/11/24 07:33:20;;;;;;;4.67;1.97;;;;;;;5.55;100.00;152787.22;4992144;28;20681;-88
2022/11/24 07:36:06;;;;;;;9.37;3.03;;;;;;;5.60;100.00;152798.81;4996602;28;20448;-88
2022/11/24 07:38:52;;;;;;;5.43;2.47;;;;;;;5.59;100.00;152796.25;4993971;28;20866;-88
2022/11/24 07:41:39;;;;;;;7.90;2.40;;;;;;;5.60;100.00;152800.09;4988304;28;20900;-87
2022/11/24 07:44:27;;;;;;;4.97;1.97;;;;;;;5.67;100.00;152816.84;5002600;28;20806;-87
2022/11/24 07:47:12;;;;;;;5.53;4.00;;;;;;;5.66;100.00;152815.59;4991845;28;20436;-88
2022/11/24 07:49:57;;;;;;;11.27;4.23;;;;;;;5.66;100.00;152815.59;4990227;28;20574;-88
2022/11/24 07:52:42;;;;;;;5.87;3.20;;;;;;;5.73;100.00;152833.63;4987669;28;20596;-88
2022/11/24 07:55:27;;;;;;;5.90;2.13;;;;;;;5.70;100.00;152825.88;4992524;28;20960;-88
2022/11/24 07:58:13;;;;;;;5.57;2.90;;;;;;;5.73;100.00;152832.34;4976012;28;20449;-88
2022/11/24 08:01:00;;;;;;;5.67;1.80;;;;;;;5.76;100.00;152841.38;5000368;28;20444;-89
2022/11/24 08:03:46;;;;;;;8.90;2.63;;;;;;;5.77;100.00;152843.94;5003913;28;20531;-88
2022/11/24 08:06:31;;;;;;;6.83;2.93;;;;;;;5.76;100.00;152841.38;4980277;28;20912;-89
2022/11/24 08:09:17;;;;;;;4.87;2.63;;;;;;;5.80;100.00;152850.44;4986458;28;20453;-88
2022/11/24 08:12:02;;;;;;;7.80;2.80;;;;;;;5.82;100.00;152856.88;4990425;28;21130;-89
2022/11/24 08:14:49;;;;;;;6.23;4.77;;;;;;;5.84;100.00;152862.00;4986402;28;20984;-89
2022/11/24 08:17:36;;;;;;;10.53;4.27;;;;;;;5.84;100.00;152862.00;4995718;28;20527;-88
2022/11/24 08:20:21;;;;;;;5.53;2.60;;;;;;;5.87;100.00;152869.81;4992412;28;20493;-88
2022/11/24 08:23:06;;;;;;;5.10;3.00;;;;;;;5.86;100.00;152867.22;4995039;28;20457;-88
2022/11/24 08:25:53;;;;;;;3.90;2.37;;;;;;;5.91;100.00;152880.09;4996240;28;20790;-88
2022/11/24 08:28:38;;;;;;;8.20;1.60;;;;;;;5.90;100.00;152877.56;4996574;28;20452;-88
2022/11/24 08:31:26;;;;;;;4.93;1.80;;;;;;;5.91;100.00;152880.09;4989072;28;20465;-88
2022/11/24 08:34:12;;;;;;;3.10;1.87;;;;;;;5.89;100.00;152874.97;4994796;28;20440;-88
2022/11/24 08:36:58;;;;;;;4.00;2.47;;;;;;;5.94;100.00;152887.84;4985215;28;20456;-87
2022/11/24 08:39:43;;;;;;;4.77;2.10;;;;;;;5.99;100.00;152899.44;4993503;28;20417;-88
2022/11/24 08:42:35;;;;;;;10.17;3.53;;;;;;;5.98;100.00;152898.16;4997149;28;20456;-88
2022/11/24 08:45:21;;;;;;;5.40;2.83;;;;;;;6.04;100.00;152913.63;4992570;28;20822;-77
2022/11/24 08:48:06;;;;;;;3.37;1.93;;;;;;;6.03;100.00;152911.09;4996082;28;20959;-77
2022/11/24 08:50:53;;;;;;;3.20;2.07;;;;;;;6.07;100.00;152920.09;4988148;28;20461;-77
2022/11/24 08:53:39;;;;;;;4.47;2.00;;;;;;;6.06;100.00;152918.78;4974101;28;20433;-77
2022/11/24 08:56:25;;;;;;;4.13;2.23;;;;;;;6.06;100.00;152917.53;4987402;28;20432;-77
2022/11/24 08:59:13;;;;;;;7.63;2.50;;;;;;;6.07;100.00;152921.38;4996661;28;20465;-77
2022/11/24 09:01:58;;;;;;;5.80;2.90;;;;;;;6.05;100.00;152916.25;4989971;28;20872;-77
2022/11/24 09:04:44;;;;;;;5.53;2.50;;;;;;;6.05;100.00;152916.25;4988607;28;20482;-77
2022/11/24 09:07:31;;;;;;;4.07;2.07;;;;;;;6.09;100.00;152926.53;4988319;28;20527;-77
2022/11/24 09:10:16;;;;;;;6.27;2.87;;;;;;;6.12;100.00;152934.28;4993233;28;20429;-77
2022/11/24 09:13:02;;;;;;;7.83;4.60;;;;;;;6.12;100.00;152934.28;5002551;28;20480;-77
2022/11/24 09:15:47;;;;;;;7.33;4.33;;;;;;;6.16;100.00;152942.03;4997035;28;20500;-77
2022/11/24 09:18:33;;;;;;;5.50;3.43;;;;;;;6.25;100.00;152965.28;4993656;28;20457;-77
2022/11/24 09:21:20;;;;;;;5.20;3.33;;;;;;;6.32;100.00;152983.31;4994191;28;20525;-77
2022/11/24 09:24:07;;;;;;;2.73;2.43;;;;;;;6.42;100.00;153009.13;4992414;28;20495;-77
2022/11/24 09:26:53;;;;;;;6.13;4.20;;;;;;;6.44;100.00;153014.28;4997089;28;20510;-77
2022/11/24 09:29:39;;;;;;;3.37;2.63;;;;;;;6.47;100.00;153023.31;4979768;28;20429;-77
2022/11/24 09:32:24;;;;;;;5.00;2.23;;;;;;;6.45;100.00;153018.16;4986617;28;20485;-77
2022/11/24 09:35:10;;;;;;;2.90;2.20;;;;;;;6.44;100.00;153014.28;4990521;28;20461;-77
2022/11/24 09:37:55;;;;;;;2.40;1.90;;;;;;;6.46;100.00;153020.72;4980677;28;20444;-77
2022/11/24 09:40:42;;;;;;;4.63;4.20;;;;;;;6.47;100.00;153022.00;4993949;28;20488;-77
2022/11/24 09:43:35;;;;;;;3.63;2.10;;;;;;;6.47;100.00;153022.00;4991105;28;20544;-77
2022/11/24 09:46:24;;;;;;;2.63;1.90;;;;;;;6.43;100.00;153011.72;4990570;28;20528;-77
2022/11/24 09:49:13;;;;;;;2.40;2.00;;;;;;;6.41;100.00;153007.81;4994793;28;20525;-77
2022/11/24 09:52:02;;;;;;;1.77;1.30;;;;;;;6.43;100.00;153011.72;4991188;28;21034;-77
2022/11/24 09:54:55;;;;;;;2.17;1.10;;;;;;;6.45;100.00;153016.88;4983881;28;20444;-77
2022/11/24 09:57:43;;;;;;;3.10;1.43;;;;;;;6.47;100.00;153022.00;4983995;28;20445;-77
2022/11/24 10:00:29;;;;;;;1.77;1.27;;;;;;;6.51;100.00;153033.63;4991584;28;20776;-77
2022/11/24 10:03:22;;;;;;;2.63;2.30;;;;;;;6.58;100.00;153050.41;4989604;28;20452;-76
2022/11/24 10:06:23;;;;;;;4.10;1.90;;;;;;;6.61;100.00;153059.47;4993166;28;20480;-76
2022/11/24 10:09:24;;;;;;;5.20;2.40;;;;;;;6.68;100.00;153076.22;4976093;28;20551;-76
2022/11/24 10:12:22;;;;;;;4.33;2.60;;;;;;;6.69;100.00;153080.13;4991898;28;20487;-77
2022/11/24 10:15:20;;;;;;;4.87;3.80;;;;;;;6.72;100.00;153087.81;4992474;28;20466;-77
2022/11/24 10:18:28;;;;;;;5.57;4.70;;;;;;;6.77;100.00;153099.47;4990214;28;20497;-76
2022/11/24 10:21:26;;;;;;;4.23;2.83;;;;;;;6.79;100.00;153104.63;4988176;28;20580;-76
2022/11/24 10:24:50;;;;;;;2.50;1.73;;;;;;;6.85;100.00;153120.13;4977506;28;20445;-76
2022/11/24 10:27:37;;;;;;;2.07;1.57;;;;;;;6.99;100.00;153156.25;4972929;28;20485;-77
2022/11/24 10:30:24;;;;;;;2.43;1.90;;;;;;;7.03;100.00;153165.28;4987457;28;20451;-77
2022/11/24 10:33:15;;;;;;;4.00;3.30;;;;;;;7.09;100.00;153182.09;4989271;28;20518;-76
2022/11/24 10:36:04;;;;;;;3.30;2.17;;;;;;;7.10;100.00;153184.66;4993687;28;20481;-78
2022/11/24 10:38:52;;;;;;;2.53;2.00;;;;;;;7.10;100.00;153184.66;4986541;28;20529;-77
2022/11/24 10:41:44;;;;;;;4.10;3.60;;;;;;;7.17;100.00;153202.75;4994940;28;20572;-78
2022/11/24 10:44:29;;;;;;;6.00;5.40;;;;;;;7.20;100.00;153209.22;4996566;28;20449;-77
2022/11/24 10:47:21;;;;;;;3.10;2.00;;;;;;;7.27;100.00;153227.28;4999038;28;20460;-77
2022/11/24 10:50:15;;;;;;;3.63;2.43;;;;;;;7.29;100.00;153232.44;4997010;28;20492;-77
2022/11/24 10:53:04;;;;;;;8.40;5.00;;;;;;;7.32;100.00;153240.19;4991193;28;20476;-77
2022/11/24 10:56:00;;;;;;;13.47;7.07;;;;;;;7.31;100.00;153237.59;4995942;28;20495;-78
2022/11/24 10:58:46;;;;;;;4.97;4.30;;;;;;;7.29;100.00;153233.72;4993673;28;20457;-77
2022/11/24 11:01:32;;;;;;;8.07;4.77;;;;;;;7.32;100.00;153241.47;4995898;28;20532;-77
2022/11/24 11:04:21;;;;;;;6.63;4.43;;;;;;;7.40;100.00;153260.84;4979256;28;20436;-77
2022/11/24 11:07:16;;;;;;;3.90;1.77;;;;;;;7.44;100.00;153269.91;4988278;28;20830;-77
2022/11/24 11:10:19;;;;;;;3.70;2.73;;;;;;;7.45;100.00;153273.75;4996371;28;20420;-87
2022/11/24 11:13:23;;;;;;;2.00;1.20;;;;;;;7.40;100.00;153260.84;4998442;28;20482;-87
2022/11/24 11:16:23;;;;;;;2.07;0.90;;;;;;;7.38;100.00;153254.41;4993686;28;20448;-87
2022/11/24 11:19:31;;;;;;;3.00;1.80;;;;;;;7.38;100.00;153255.69;4993359;28;20500;-87
2022/11/24 11:22:25;;;;;;;1.80;1.70;;;;;;;7.42;100.00;153266.00;4995149;28;21297;-87
2022/11/24 11:25:19;;;;;;;2.90;1.30;;;;;;;7.50;100.00;153285.38;4976238;28;20445;-87
2022/11/24 11:28:22;;;;;;;2.40;1.83;;;;;;;7.54;100.00;153295.72;4994490;28;20445;-87
2022/11/24 11:31:19;;;;;;;1.90;1.70;;;;;;;7.57;100.00;153303.47;4994824;28;20955;-87
2022/11/24 11:34:17;;;;;;;1.70;1.17;;;;;;;7.63;100.00;153318.94;4990627;28;20456;-87
2022/11/24 11:37:04;;;;;;;1.80;1.20;;;;;;;7.65;100.00;153324.16;4990153;28;20523;-87
2022/11/24 11:39:51;;;;;;;2.57;1.20;;;;;;;7.69;100.00;153335.75;4993573;28;20456;-87
2022/11/24 11:42:41;;;;;;;1.67;0.43;;;;;;;7.72;100.00;153342.22;4979447;28;20445;-87
2022/11/24 11:45:28;;;;;;;1.60;0.60;;;;;;;7.69;100.00;153334.47;4992447;28;20665;-87
2022/11/24 11:48:25;;;;;;;2.30;0.80;;;;;;;7.71;100.00;153339.63;4994830;28;20441;-87
2022/11/24 11:51:25;;;;;;;2.47;1.00;;;;;;;7.70;100.00;153337.06;4990711;28;21008;-77
2022/11/24 11:54:18;;;;;;;1.97;1.00;;;;;;;7.73;100.00;153344.81;4991617;28;20455;-87
2022/11/24 11:57:08;;;;;;;2.40;0.73;;;;;;;7.75;100.00;153349.97;4978063;28;20445;-87
2022/11/24 12:00:10;;;;;;;1.03;0.57;;;;;;;7.76;100.00;153352.53;4995135;28;20511;-88
2022/11/24 12:03:08;;;;;;;2.20;0.77;;;;;;;7.76;100.00;153352.53;4994225;28;20440;-87
2022/11/24 12:06:00;;;;;;;2.03;0.90;;;;;;;7.72;100.00;153343.53;4993632;28;20515;-77
2022/11/24 12:08:52;;;;;;;2.10;1.40;;;;;;;7.71;100.00;153340.91;4973988;28;20406;-77
2022/11/24 12:11:43;;;;;;;4.37;1.63;;;;;;;7.71;100.00;153339.63;4984157;28;20488;-77
2022/11/24 12:14:32;;;;;;;3.07;0.87;;;;;;;7.67;100.00;153329.31;4991887;28;20511;-77
2022/11/24 12:17:28;;;;;;;3.57;1.40;;;;;;;7.66;100.00;153326.72;4992982;28;20944;-77
2022/11/24 12:20:24;;;;;;;1.57;1.27;;;;;;;7.66;100.00;153326.72;4992371;28;20956;-77
2022/11/24 12:23:18;;;;;;;3.10;1.10;;;;;;;7.68;100.00;153331.84;4984117;28;20481;-76
2022/11/24 12:26:08;;;;;;;2.57;1.33;;;;;;;7.71;100.00;153339.63;4994038;28;20479;-76
2022/11/24 12:29:06;;;;;;;2.87;1.20;;;;;;;7.73;100.00;153344.81;4993988;28;20456;-77
2022/11/24 12:31:57;;;;;;;3.53;1.07;;;;;;;7.75;100.00;153349.97;4994526;28;20448;-77
2022/11/24 12:34:48;;;;;;;1.70;0.93;;;;;;;7.76;100.00;153352.53;4975322;28;20846;-77
2022/11/24 12:37:49;;;;;;;4.03;1.20;;;;;;;7.81;100.00;153366.75;4984383;28;20449;-77
2022/11/24 12:40:49;;;;;;;3.40;1.40;;;;;;;7.90;100.00;153388.72;4988317;28;20449;-77
2022/11/24 12:43:36;;;;;;;2.90;1.30;;;;;;;7.97;100.00;153406.78;4987730;28;20442;-77
2022/11/24 12:46:30;;;;;;;2.07;1.00;;;;;;;8.14;100.00;153449.44;4992096;28;20920;-77
2022/11/24 12:49:21;;;;;;;4.23;1.10;;;;;;;8.15;100.00;153453.34;4994763;28;20484;-77
2022/11/24 12:52:21;;;;;;;2.30;1.10;;;;;;;8.25;100.00;153479.19;4994057;28;20461;-77
2022/11/24 12:55:13;;;;;;;1.90;0.90;;;;;;;8.32;100.00;153497.31;4997303;28;20523;-77
2022/11/24 12:58:03;;;;;;;1.40;1.10;;;;;;;8.36;100.00;153507.69;4991200;28;20564;-77
2022/11/24 13:01:00;;;;;;;9.70;2.30;;;;;;;8.37;100.00;153510.22;4975174;28;20921;-77